sensor_id;sensor_type;location;lat;lon;timestamp;temperature;humidity
12049;DHT22;6085;49.452;8.502;2022-07-05T00:01:17;19.40;81.70
12049;DHT22;6085;49.452;8.502;2022-07-05T00:05:19;19.40;82.00
12049;DHT22;6085;49.452;8.502;2022-07-05T00:09:21;19.40;82.10
12049;DHT22;6085;49.452;8.502;2022-07-05T00:13:25;19.40;82.60
12049;DHT22;6085;49.452;8.502;2022-07-05T00:17:27;19.30;82.80
12049;DHT22;6085;49.452;8.502;2022-07-05T00:21:29;19.20;83.40
12049;DHT22;6085;49.452;8.502;2022-07-05T00:25:30;19.10;84.10
12049;DHT22;6085;49.452;8.502;2022-07-05T00:29:34;19.00;84.90
12049;DHT22;6085;49.452;8.502;2022-07-05T00:33:35;18.80;85.90
12049;DHT22;6085;49.452;8.502;2022-07-05T00:37:37;18.80;87.00
12049;DHT22;6085;49.452;8.502;2022-07-05T00:41:39;18.60;87.90
12049;DHT22;6085;49.452;8.502;2022-07-05T00:45:43;18.50;88.60
12049;DHT22;6085;49.452;8.502;2022-07-05T00:49:45;18.40;89.60
12049;DHT22;6085;49.452;8.502;2022-07-05T00:53:47;18.30;90.20
12049;DHT22;6085;49.452;8.502;2022-07-05T00:57:50;18.30;90.70
12049;DHT22;6085;49.452;8.502;2022-07-05T01:01:53;18.30;91.20
12049;DHT22;6085;49.452;8.502;2022-07-05T01:05:55;18.30;91.30
12049;DHT22;6085;49.452;8.502;2022-07-05T01:09:57;18.30;91.50
12049;DHT22;6085;49.452;8.502;2022-07-05T01:13:59;18.30;91.80
12049;DHT22;6085;49.452;8.502;2022-07-05T01:18:05;18.20;92.20
12049;DHT22;6085;49.452;8.502;2022-07-05T01:22:14;18.20;92.70
12049;DHT22;6085;49.452;8.502;2022-07-05T01:26:19;18.00;93.40
12049;DHT22;6085;49.452;8.502;2022-07-05T01:30:21;17.90;94.80
12049;DHT22;6085;49.452;8.502;2022-07-05T01:34:23;17.90;96.10
12049;DHT22;6085;49.452;8.502;2022-07-05T01:38:25;17.80;97.10
12049;DHT22;6085;49.452;8.502;2022-07-05T01:42:29;17.80;98.40
12049;DHT22;6085;49.452;8.502;2022-07-05T01:46:32;17.70;99.60
12049;DHT22;6085;49.452;8.502;2022-07-05T01:50:40;17.60;99.90
12049;DHT22;6085;49.452;8.502;2022-07-05T01:54:42;17.60;99.90
12049;DHT22;6085;49.452;8.502;2022-07-05T01:58:46;17.40;99.90
12049;DHT22;6085;49.452;8.502;2022-07-05T02:02:49;17.20;99.90
12049;DHT22;6085;49.452;8.502;2022-07-05T02:06:51;17.10;99.90
12049;DHT22;6085;49.452;8.502;2022-07-05T02:10:53;17.00;99.90
12049;DHT22;6085;49.452;8.502;2022-07-05T02:14:56;16.90;99.90
12049;DHT22;6085;49.452;8.502;2022-07-05T02:18:58;16.90;99.90
12049;DHT22;6085;49.452;8.502;2022-07-05T02:23:00;16.80;99.90
12049;DHT22;6085;49.452;8.502;2022-07-05T02:27:03;16.80;99.90
12049;DHT22;6085;49.452;8.502;2022-07-05T02:31:07;16.90;99.90
12049;DHT22;6085;49.452;8.502;2022-07-05T02:35:10;16.90;99.90
12049;DHT22;6085;49.452;8.502;2022-07-05T02:39:12;17.00;99.90
12049;DHT22;6085;49.452;8.502;2022-07-05T02:43:14;16.90;99.90
12049;DHT22;6085;49.452;8.502;2022-07-05T02:47:17;16.90;99.90
12049;DHT22;6085;49.452;8.502;2022-07-05T02:51:19;16.90;99.90
12049;DHT22;6085;49.452;8.502;2022-07-05T02:55:21;16.80;99.90
12049;DHT22;6085;49.452;8.502;2022-07-05T02:59:23;16.80;99.90
12049;DHT22;6085;49.452;8.502;2022-07-05T03:03:26;16.70;99.90
12049;DHT22;6085;49.452;8.502;2022-07-05T03:07:28;16.50;99.90
12049;DHT22;6085;49.452;8.502;2022-07-05T03:11:30;16.30;99.90
12049;DHT22;6085;49.452;8.502;2022-07-05T03:15:32;16.20;99.90
12049;DHT22;6085;49.452;8.502;2022-07-05T03:19:35;16.00;99.90
12049;DHT22;6085;49.452;8.502;2022-07-05T03:23:37;15.90;99.90
12049;DHT22;6085;49.452;8.502;2022-07-05T03:27:39;15.70;99.90
12049;DHT22;6085;49.452;8.502;2022-07-05T03:31:41;15.60;99.90
12049;DHT22;6085;49.452;8.502;2022-07-05T03:35:44;15.50;99.90
12049;DHT22;6085;49.452;8.502;2022-07-05T03:39:46;15.50;99.90
12049;DHT22;6085;49.452;8.502;2022-07-05T03:43:48;15.50;99.90
12049;DHT22;6085;49.452;8.502;2022-07-05T03:47:50;15.40;99.90
12049;DHT22;6085;49.452;8.502;2022-07-05T03:51:53;15.40;99.90
12049;DHT22;6085;49.452;8.502;2022-07-05T03:55:55;15.30;99.90
12049;DHT22;6085;49.452;8.502;2022-07-05T03:59:57;15.40;99.90
12049;DHT22;6085;49.452;8.502;2022-07-05T04:03:59;15.50;99.90
12049;DHT22;6085;49.452;8.502;2022-07-05T04:08:03;15.60;99.90
12049;DHT22;6085;49.452;8.502;2022-07-05T04:12:05;15.80;99.90
12049;DHT22;6085;49.452;8.502;2022-07-05T04:16:08;16.10;99.90
12049;DHT22;6085;49.452;8.502;2022-07-05T04:20:10;16.30;99.90
12049;DHT22;6085;49.452;8.502;2022-07-05T04:24:13;16.50;99.90
12049;DHT22;6085;49.452;8.502;2022-07-05T04:28:15;16.70;99.90
12049;DHT22;6085;49.452;8.502;2022-07-05T04:32:17;16.90;99.90
12049;DHT22;6085;49.452;8.502;2022-07-05T04:36:19;17.10;99.90
12049;DHT22;6085;49.452;8.502;2022-07-05T04:40:22;17.40;99.90
12049;DHT22;6085;49.452;8.502;2022-07-05T04:44:24;17.90;99.90
12049;DHT22;6085;49.452;8.502;2022-07-05T04:48:26;18.20;99.90
12049;DHT22;6085;49.452;8.502;2022-07-05T04:52:28;18.40;99.90
12049;DHT22;6085;49.452;8.502;2022-07-05T04:56:31;18.40;99.90
12049;DHT22;6085;49.452;8.502;2022-07-05T05:00:33;18.50;99.90
12049;DHT22;6085;49.452;8.502;2022-07-05T05:04:36;18.50;99.90
12049;DHT22;6085;49.452;8.502;2022-07-05T05:08:38;18.80;99.90
12049;DHT22;6085;49.452;8.502;2022-07-05T05:12:41;19.10;99.90
12049;DHT22;6085;49.452;8.502;2022-07-05T05:16:43;19.50;99.90
12049;DHT22;6085;49.452;8.502;2022-07-05T05:20:45;20.80;99.90
12049;DHT22;6085;49.452;8.502;2022-07-05T05:24:47;21.00;99.90
12049;DHT22;6085;49.452;8.502;2022-07-05T05:28:51;21.00;99.90
12049;DHT22;6085;49.452;8.502;2022-07-05T05:32:52;20.90;99.90
12049;DHT22;6085;49.452;8.502;2022-07-05T05:36:54;21.20;99.90
12049;DHT22;6085;49.452;8.502;2022-07-05T05:40:56;21.30;99.90
12049;DHT22;6085;49.452;8.502;2022-07-05T05:44:59;22.70;99.90
12049;DHT22;6085;49.452;8.502;2022-07-05T05:49:01;24.60;98.40
12049;DHT22;6085;49.452;8.502;2022-07-05T05:53:03;25.90;95.90
12049;DHT22;6085;49.452;8.502;2022-07-05T05:57:05;26.90;93.10
12049;DHT22;6085;49.452;8.502;2022-07-05T06:01:08;28.20;90.40
12049;DHT22;6085;49.452;8.502;2022-07-05T06:05:10;29.10;84.80
12049;DHT22;6085;49.452;8.502;2022-07-05T06:09:12;29.30;82.60
12049;DHT22;6085;49.452;8.502;2022-07-05T06:13:14;28.90;81.80
12049;DHT22;6085;49.452;8.502;2022-07-05T06:17:18;28.40;81.70
12049;DHT22;6085;49.452;8.502;2022-07-05T06:21:20;27.80;82.70
12049;DHT22;6085;49.452;8.502;2022-07-05T06:25:22;27.30;83.30
12049;DHT22;6085;49.452;8.502;2022-07-05T06:29:24;27.50;83.40
12049;DHT22;6085;49.452;8.502;2022-07-05T06:33:27;28.40;82.00
12049;DHT22;6085;49.452;8.502;2022-07-05T06:37:41;29.00;79.30
12049;DHT22;6085;49.452;8.502;2022-07-05T06:41:43;29.30;78.30
12049;DHT22;6085;49.452;8.502;2022-07-05T06:45:45;30.50;74.90
12049;DHT22;6085;49.452;8.502;2022-07-05T06:49:50;32.00;70.40
12049;DHT22;6085;49.452;8.502;2022-07-05T06:53:52;33.90;66.20
12049;DHT22;6085;49.452;8.502;2022-07-05T06:57:58;34.40;61.50
12049;DHT22;6085;49.452;8.502;2022-07-05T07:02:00;35.50;59.40
12049;DHT22;6085;49.452;8.502;2022-07-05T07:06:04;35.90;55.90
12049;DHT22;6085;49.452;8.502;2022-07-05T07:10:07;36.10;54.80
12049;DHT22;6085;49.452;8.502;2022-07-05T07:14:09;36.30;53.80
12049;DHT22;6085;49.452;8.502;2022-07-05T07:18:10;36.90;52.70
12049;DHT22;6085;49.452;8.502;2022-07-05T07:22:14;37.60;50.10
12049;DHT22;6085;49.452;8.502;2022-07-05T07:26:16;37.30;49.80
12049;DHT22;6085;49.452;8.502;2022-07-05T07:30:23;37.30;49.90
12049;DHT22;6085;49.452;8.502;2022-07-05T07:34:25;37.30;49.00
12049;DHT22;6085;49.452;8.502;2022-07-05T07:38:29;37.30;48.50
12049;DHT22;6085;49.452;8.502;2022-07-05T07:42:31;38.00;47.70
12049;DHT22;6085;49.452;8.502;2022-07-05T07:46:33;38.60;46.80
12049;DHT22;6085;49.452;8.502;2022-07-05T07:50:35;38.50;45.30
12049;DHT22;6085;49.452;8.502;2022-07-05T07:54:38;39.00;45.00
12049;DHT22;6085;49.452;8.502;2022-07-05T07:58:40;39.60;43.80
12049;DHT22;6085;49.452;8.502;2022-07-05T08:02:42;40.00;43.20
12049;DHT22;6085;49.452;8.502;2022-07-05T08:06:44;39.40;42.30
12049;DHT22;6085;49.452;8.502;2022-07-05T08:10:47;39.50;42.60
12049;DHT22;6085;49.452;8.502;2022-07-05T08:14:49;39.70;40.50
12049;DHT22;6085;49.452;8.502;2022-07-05T08:18:51;39.30;41.20
12049;DHT22;6085;49.452;8.502;2022-07-05T08:23:11;39.30;41.90
12049;DHT22;6085;49.452;8.502;2022-07-05T08:27:15;39.50;40.80
12049;DHT22;6085;49.452;8.502;2022-07-05T08:31:17;40.10;40.40
12049;DHT22;6085;49.452;8.502;2022-07-05T08:35:19;40.50;38.90
12049;DHT22;6085;49.452;8.502;2022-07-05T08:39:21;40.60;38.90
12049;DHT22;6085;49.452;8.502;2022-07-05T08:43:26;40.80;38.70
12049;DHT22;6085;49.452;8.502;2022-07-05T08:47:29;40.90;38.10
12049;DHT22;6085;49.452;8.502;2022-07-05T08:51:35;41.20;37.30
12049;DHT22;6085;49.452;8.502;2022-07-05T08:55:38;39.90;38.10
12049;DHT22;6085;49.452;8.502;2022-07-05T08:59:42;39.90;37.40
12049;DHT22;6085;49.452;8.502;2022-07-05T09:03:46;40.60;37.10
12049;DHT22;6085;49.452;8.502;2022-07-05T09:07:54;41.10;37.20
12049;DHT22;6085;49.452;8.502;2022-07-05T09:11:57;42.00;36.80
12049;DHT22;6085;49.452;8.502;2022-07-05T09:16:01;42.30;36.30
12049;DHT22;6085;49.452;8.502;2022-07-05T09:20:08;41.70;35.40
12049;DHT22;6085;49.452;8.502;2022-07-05T09:24:11;42.20;35.30
12049;DHT22;6085;49.452;8.502;2022-07-05T09:28:14;41.30;35.20
12049;DHT22;6085;49.452;8.502;2022-07-05T09:32:24;41.00;35.20
12049;DHT22;6085;49.452;8.502;2022-07-05T09:36:28;40.90;35.60
12049;DHT22;6085;49.452;8.502;2022-07-05T09:40:30;41.60;34.80
12049;DHT22;6085;49.452;8.502;2022-07-05T09:44:35;41.10;34.80
12049;DHT22;6085;49.452;8.502;2022-07-05T09:48:51;38.70;36.80
12049;DHT22;6085;49.452;8.502;2022-07-05T09:52:56;38.20;37.20
12049;DHT22;6085;49.452;8.502;2022-07-05T09:56:57;39.00;37.10
12049;DHT22;6085;49.452;8.502;2022-07-05T10:00:59;39.40;36.00
12049;DHT22;6085;49.452;8.502;2022-07-05T10:05:09;38.70;37.10
12049;DHT22;6085;49.452;8.502;2022-07-05T10:09:11;37.80;38.20
12049;DHT22;6085;49.452;8.502;2022-07-05T10:13:15;39.40;36.50
12049;DHT22;6085;49.452;8.502;2022-07-05T10:17:17;38.70;36.40
12049;DHT22;6085;49.452;8.502;2022-07-05T10:21:20;37.60;38.10
12049;DHT22;6085;49.452;8.502;2022-07-05T10:25:23;37.50;38.10
12049;DHT22;6085;49.452;8.502;2022-07-05T10:29:26;38.20;37.70
12049;DHT22;6085;49.452;8.502;2022-07-05T10:33:28;38.10;37.40
12049;DHT22;6085;49.452;8.502;2022-07-05T10:37:33;37.90;37.30
12049;DHT22;6085;49.452;8.502;2022-07-05T10:41:35;37.60;37.70
12049;DHT22;6085;49.452;8.502;2022-07-05T10:45:47;35.60;40.10
12049;DHT22;6085;49.452;8.502;2022-07-05T10:50:00;34.30;41.60
12049;DHT22;6085;49.452;8.502;2022-07-05T10:54:04;33.40;43.60
12049;DHT22;6085;49.452;8.502;2022-07-05T10:58:28;33.80;43.40
12049;DHT22;6085;49.452;8.502;2022-07-05T11:02:30;34.00;42.00
12049;DHT22;6085;49.452;8.502;2022-07-05T11:06:39;36.10;39.60
12049;DHT22;6085;49.452;8.502;2022-07-05T11:11:08;37.90;38.30
12049;DHT22;6085;49.452;8.502;2022-07-05T11:15:11;39.00;37.10
12049;DHT22;6085;49.452;8.502;2022-07-05T11:19:16;38.80;36.90
12049;DHT22;6085;49.452;8.502;2022-07-05T11:23:29;36.30;39.60
12049;DHT22;6085;49.452;8.502;2022-07-05T11:27:33;33.60;42.00
12049;DHT22;6085;49.452;8.502;2022-07-05T11:31:41;33.40;43.90
12049;DHT22;6085;49.452;8.502;2022-07-05T11:35:43;35.40;41.40
12049;DHT22;6085;49.452;8.502;2022-07-05T11:39:46;36.50;38.90
12049;DHT22;6085;49.452;8.502;2022-07-05T11:43:56;36.90;38.90
12049;DHT22;6085;49.452;8.502;2022-07-05T11:47:59;36.90;38.10
12049;DHT22;6085;49.452;8.502;2022-07-05T11:52:03;36.20;38.10
12049;DHT22;6085;49.452;8.502;2022-07-05T11:56:05;35.40;39.10
12049;DHT22;6085;49.452;8.502;2022-07-05T12:00:10;33.80;40.70
12049;DHT22;6085;49.452;8.502;2022-07-05T12:04:20;33.00;41.70
12049;DHT22;6085;49.452;8.502;2022-07-05T12:08:23;31.70;43.50
12049;DHT22;6085;49.452;8.502;2022-07-05T12:12:25;30.80;44.60
12049;DHT22;6085;49.452;8.502;2022-07-05T12:17:10;30.70;45.30
12049;DHT22;6085;49.452;8.502;2022-07-05T12:21:12;31.20;44.40
12049;DHT22;6085;49.452;8.502;2022-07-05T12:25:19;30.90;44.50
12049;DHT22;6085;49.452;8.502;2022-07-05T12:29:21;30.40;45.30
12049;DHT22;6085;49.452;8.502;2022-07-05T12:33:25;30.40;45.20
12049;DHT22;6085;49.452;8.502;2022-07-05T12:37:28;30.40;45.10
12049;DHT22;6085;49.452;8.502;2022-07-05T12:41:32;30.20;45.30
12049;DHT22;6085;49.452;8.502;2022-07-05T12:45:34;29.80;44.90
12049;DHT22;6085;49.452;8.502;2022-07-05T12:49:55;29.10;45.00
12049;DHT22;6085;49.452;8.502;2022-07-05T12:53:57;29.10;45.70
12049;DHT22;6085;49.452;8.502;2022-07-05T12:58:16;28.90;45.70
12049;DHT22;6085;49.452;8.502;2022-07-05T13:02:33;28.80;45.50
12049;DHT22;6085;49.452;8.502;2022-07-05T13:06:48;28.70;46.20
12049;DHT22;6085;49.452;8.502;2022-07-05T13:10:51;29.10;45.60
12049;DHT22;6085;49.452;8.502;2022-07-05T13:14:53;29.10;46.00
12049;DHT22;6085;49.452;8.502;2022-07-05T13:19:07;28.90;46.90
12049;DHT22;6085;49.452;8.502;2022-07-05T13:23:11;28.60;47.00
12049;DHT22;6085;49.452;8.502;2022-07-05T13:27:13;28.80;47.40
12049;DHT22;6085;49.452;8.502;2022-07-05T13:31:15;29.00;46.80
12049;DHT22;6085;49.452;8.502;2022-07-05T13:35:17;29.10;45.40
12049;DHT22;6085;49.452;8.502;2022-07-05T13:39:22;29.10;46.20
12049;DHT22;6085;49.452;8.502;2022-07-05T13:43:24;29.00;47.20
12049;DHT22;6085;49.452;8.502;2022-07-05T13:47:29;29.00;46.60
12049;DHT22;6085;49.452;8.502;2022-07-05T13:51:31;29.10;46.60
12049;DHT22;6085;49.452;8.502;2022-07-05T13:55:34;28.90;46.10
12049;DHT22;6085;49.452;8.502;2022-07-05T13:59:36;28.70;46.80
12049;DHT22;6085;49.452;8.502;2022-07-05T14:03:38;28.70;46.60
12049;DHT22;6085;49.452;8.502;2022-07-05T14:07:40;28.40;46.40
12049;DHT22;6085;49.452;8.502;2022-07-05T14:11:43;28.30;45.60
12049;DHT22;6085;49.452;8.502;2022-07-05T14:15:45;28.00;46.70
12049;DHT22;6085;49.452;8.502;2022-07-05T14:19:47;27.90;46.80
12049;DHT22;6085;49.452;8.502;2022-07-05T14:23:49;27.80;46.70
12049;DHT22;6085;49.452;8.502;2022-07-05T14:27:53;28.00;45.80
12049;DHT22;6085;49.452;8.502;2022-07-05T14:31:54;28.40;45.70
12049;DHT22;6085;49.452;8.502;2022-07-05T14:35:56;28.90;45.10
12049;DHT22;6085;49.452;8.502;2022-07-05T14:39:58;29.30;44.60
12049;DHT22;6085;49.452;8.502;2022-07-05T14:44:02;29.40;44.10
12049;DHT22;6085;49.452;8.502;2022-07-05T14:48:04;29.20;44.50
12049;DHT22;6085;49.452;8.502;2022-07-05T14:52:06;28.90;45.00
12049;DHT22;6085;49.452;8.502;2022-07-05T14:56:08;28.50;45.50
12049;DHT22;6085;49.452;8.502;2022-07-05T15:00:14;28.30;44.00
12049;DHT22;6085;49.452;8.502;2022-07-05T15:04:16;28.30;43.70
12049;DHT22;6085;49.452;8.502;2022-07-05T15:08:18;28.70;44.80
12049;DHT22;6085;49.452;8.502;2022-07-05T15:12:20;29.20;44.60
12049;DHT22;6085;49.452;8.502;2022-07-05T15:16:23;29.30;43.20
12049;DHT22;6085;49.452;8.502;2022-07-05T15:20:25;29.40;44.40
12049;DHT22;6085;49.452;8.502;2022-07-05T15:24:27;29.70;43.50
12049;DHT22;6085;49.452;8.502;2022-07-05T15:28:29;29.40;43.30
12049;DHT22;6085;49.452;8.502;2022-07-05T15:32:33;29.10;43.60
12049;DHT22;6085;49.452;8.502;2022-07-05T15:36:35;28.90;44.10
12049;DHT22;6085;49.452;8.502;2022-07-05T15:40:37;28.90;43.40
12049;DHT22;6085;49.452;8.502;2022-07-05T15:44:38;28.70;44.40
12049;DHT22;6085;49.452;8.502;2022-07-05T15:48:42;28.60;44.80
12049;DHT22;6085;49.452;8.502;2022-07-05T15:52:44;28.40;45.00
12049;DHT22;6085;49.452;8.502;2022-07-05T15:56:48;28.20;45.10
12049;DHT22;6085;49.452;8.502;2022-07-05T16:00:50;28.00;45.10
12049;DHT22;6085;49.452;8.502;2022-07-05T16:04:54;27.90;45.00
12049;DHT22;6085;49.452;8.502;2022-07-05T16:08:56;27.90;45.40
12049;DHT22;6085;49.452;8.502;2022-07-05T16:13:00;28.10;45.40
12049;DHT22;6085;49.452;8.502;2022-07-05T16:17:03;28.40;45.70
12049;DHT22;6085;49.452;8.502;2022-07-05T16:21:06;28.70;44.90
12049;DHT22;6085;49.452;8.502;2022-07-05T16:25:09;28.90;45.60
12049;DHT22;6085;49.452;8.502;2022-07-05T16:29:12;29.00;45.00
12049;DHT22;6085;49.452;8.502;2022-07-05T16:33:14;28.90;44.80
12049;DHT22;6085;49.452;8.502;2022-07-05T16:37:17;28.80;45.10
12049;DHT22;6085;49.452;8.502;2022-07-05T16:41:19;28.80;45.00
12049;DHT22;6085;49.452;8.502;2022-07-05T16:45:21;28.70;46.20
12049;DHT22;6085;49.452;8.502;2022-07-05T16:49:22;28.70;45.10
12049;DHT22;6085;49.452;8.502;2022-07-05T16:53:26;28.60;45.70
12049;DHT22;6085;49.452;8.502;2022-07-05T16:57:28;28.30;45.80
12049;DHT22;6085;49.452;8.502;2022-07-05T17:01:30;28.30;45.50
12049;DHT22;6085;49.452;8.502;2022-07-05T17:05:31;28.40;45.70
12049;DHT22;6085;49.452;8.502;2022-07-05T17:09:35;28.40;45.30
12049;DHT22;6085;49.452;8.502;2022-07-05T17:13:37;28.40;46.40
12049;DHT22;6085;49.452;8.502;2022-07-05T17:17:40;28.40;45.80
12049;DHT22;6085;49.452;8.502;2022-07-05T17:21:42;28.50;46.10
12049;DHT22;6085;49.452;8.502;2022-07-05T17:25:45;28.20;46.20
12049;DHT22;6085;49.452;8.502;2022-07-05T17:29:47;27.90;46.50
12049;DHT22;6085;49.452;8.502;2022-07-05T17:33:49;27.60;47.50
12049;DHT22;6085;49.452;8.502;2022-07-05T17:37:51;27.40;47.60
12049;DHT22;6085;49.452;8.502;2022-07-05T17:41:54;27.60;47.10
12049;DHT22;6085;49.452;8.502;2022-07-05T17:45:58;28.20;46.30
12049;DHT22;6085;49.452;8.502;2022-07-05T17:50:00;28.40;45.60
12049;DHT22;6085;49.452;8.502;2022-07-05T17:54:02;28.20;46.70
12049;DHT22;6085;49.452;8.502;2022-07-05T17:58:05;27.90;46.60
12049;DHT22;6085;49.452;8.502;2022-07-05T18:02:07;27.50;46.80
12049;DHT22;6085;49.452;8.502;2022-07-05T18:06:09;27.40;47.40
12049;DHT22;6085;49.452;8.502;2022-07-05T18:10:11;27.40;47.80
12049;DHT22;6085;49.452;8.502;2022-07-05T18:14:14;27.30;47.90
12049;DHT22;6085;49.452;8.502;2022-07-05T18:18:19;27.40;48.40
12049;DHT22;6085;49.452;8.502;2022-07-05T18:22:22;27.60;48.10
12049;DHT22;6085;49.452;8.502;2022-07-05T18:26:24;27.60;48.30
12049;DHT22;6085;49.452;8.502;2022-07-05T18:30:27;27.40;48.50
12049;DHT22;6085;49.452;8.502;2022-07-05T18:34:29;27.00;49.20
12049;DHT22;6085;49.452;8.502;2022-07-05T18:38:31;26.60;49.80
12049;DHT22;6085;49.452;8.502;2022-07-05T18:42:32;26.40;50.20
12049;DHT22;6085;49.452;8.502;2022-07-05T18:46:36;26.30;52.20
12049;DHT22;6085;49.452;8.502;2022-07-05T18:50:39;26.30;54.40
12049;DHT22;6085;49.452;8.502;2022-07-05T18:54:44;26.10;55.40
12049;DHT22;6085;49.452;8.502;2022-07-05T18:58:46;25.90;56.30
12049;DHT22;6085;49.452;8.502;2022-07-05T19:02:50;25.80;57.20
12049;DHT22;6085;49.452;8.502;2022-07-05T19:06:52;25.60;57.90
12049;DHT22;6085;49.452;8.502;2022-07-05T19:11:11;25.50;58.50
12049;DHT22;6085;49.452;8.502;2022-07-05T19:15:31;25.30;59.20
12049;DHT22;6085;49.452;8.502;2022-07-05T19:19:35;25.20;59.80
12049;DHT22;6085;49.452;8.502;2022-07-05T19:23:37;25.00;60.20
12049;DHT22;6085;49.452;8.502;2022-07-05T19:27:39;24.90;59.80
12049;DHT22;6085;49.452;8.502;2022-07-05T19:31:41;24.60;60.00
12049;DHT22;6085;49.452;8.502;2022-07-05T19:35:45;24.40;60.20
12049;DHT22;6085;49.452;8.502;2022-07-05T19:39:47;24.10;60.20
12049;DHT22;6085;49.452;8.502;2022-07-05T19:43:49;23.90;60.70
12049;DHT22;6085;49.452;8.502;2022-07-05T19:47:51;23.70;61.00
12049;DHT22;6085;49.452;8.502;2022-07-05T19:51:54;23.50;61.30
12049;DHT22;6085;49.452;8.502;2022-07-05T19:55:56;23.30;61.50
12049;DHT22;6085;49.452;8.502;2022-07-05T19:59:57;23.20;62.00
12049;DHT22;6085;49.452;8.502;2022-07-05T20:03:59;23.10;62.20
12049;DHT22;6085;49.452;8.502;2022-07-05T20:08:04;22.90;62.20
12049;DHT22;6085;49.452;8.502;2022-07-05T20:12:07;22.90;62.50
12049;DHT22;6085;49.452;8.502;2022-07-05T20:16:09;22.70;63.10
12049;DHT22;6085;49.452;8.502;2022-07-05T20:20:11;22.60;63.60
12049;DHT22;6085;49.452;8.502;2022-07-05T20:24:14;22.40;64.10
12049;DHT22;6085;49.452;8.502;2022-07-05T20:28:16;22.30;64.20
12049;DHT22;6085;49.452;8.502;2022-07-05T20:32:20;22.20;64.70
12049;DHT22;6085;49.452;8.502;2022-07-05T20:36:22;22.20;64.70
12049;DHT22;6085;49.452;8.502;2022-07-05T20:40:25;22.10;65.30
12049;DHT22;6085;49.452;8.502;2022-07-05T20:44:27;21.90;65.60
12049;DHT22;6085;49.452;8.502;2022-07-05T20:48:29;21.80;66.10
12049;DHT22;6085;49.452;8.502;2022-07-05T20:52:31;21.70;66.50
12049;DHT22;6085;49.452;8.502;2022-07-05T20:56:34;21.60;66.70
12049;DHT22;6085;49.452;8.502;2022-07-05T21:00:36;21.50;66.80
12049;DHT22;6085;49.452;8.502;2022-07-05T21:04:38;21.50;67.10
12049;DHT22;6085;49.452;8.502;2022-07-05T21:08:40;21.40;67.50
12049;DHT22;6085;49.452;8.502;2022-07-05T21:12:43;21.30;67.90
12049;DHT22;6085;49.452;8.502;2022-07-05T21:16:45;21.20;68.00
12049;DHT22;6085;49.452;8.502;2022-07-05T21:20:47;21.10;68.20
12049;DHT22;6085;49.452;8.502;2022-07-05T21:24:49;21.00;68.30
12049;DHT22;6085;49.452;8.502;2022-07-05T21:28:52;20.90;68.90
12049;DHT22;6085;49.452;8.502;2022-07-05T21:32:54;20.90;69.10
12049;DHT22;6085;49.452;8.502;2022-07-05T21:36:56;20.80;69.40
12049;DHT22;6085;49.452;8.502;2022-07-05T21:40:58;20.80;69.50
12049;DHT22;6085;49.452;8.502;2022-07-05T21:45:02;20.70;69.30
12049;DHT22;6085;49.452;8.502;2022-07-05T21:49:04;20.70;69.60
12049;DHT22;6085;49.452;8.502;2022-07-05T21:53:06;20.70;69.60
12049;DHT22;6085;49.452;8.502;2022-07-05T21:57:08;20.60;69.70
12049;DHT22;6085;49.452;8.502;2022-07-05T22:01:12;20.60;69.70
12049;DHT22;6085;49.452;8.502;2022-07-05T22:05:31;20.50;69.90
12049;DHT22;6085;49.452;8.502;2022-07-05T22:09:34;20.50;70.40
12049;DHT22;6085;49.452;8.502;2022-07-05T22:13:37;20.40;70.80
12049;DHT22;6085;49.452;8.502;2022-07-05T22:17:40;20.40;70.80
12049;DHT22;6085;49.452;8.502;2022-07-05T22:21:43;20.40;70.60
12049;DHT22;6085;49.452;8.502;2022-07-05T22:25:45;20.30;70.60
12049;DHT22;6085;49.452;8.502;2022-07-05T22:29:47;20.30;70.60
12049;DHT22;6085;49.452;8.502;2022-07-05T22:33:50;20.30;70.90
12049;DHT22;6085;49.452;8.502;2022-07-05T22:37:52;20.30;71.40
12049;DHT22;6085;49.452;8.502;2022-07-05T22:41:53;20.30;72.20
12049;DHT22;6085;49.452;8.502;2022-07-05T22:45:55;20.40;72.30
12049;DHT22;6085;49.452;8.502;2022-07-05T22:49:59;20.40;72.40
12049;DHT22;6085;49.452;8.502;2022-07-05T22:54:00;20.30;73.00
12049;DHT22;6085;49.452;8.502;2022-07-05T22:58:02;20.30;73.90
12049;DHT22;6085;49.452;8.502;2022-07-05T23:02:04;20.20;74.40
12049;DHT22;6085;49.452;8.502;2022-07-05T23:06:08;20.10;75.40
12049;DHT22;6085;49.452;8.502;2022-07-05T23:10:09;20.00;75.90
12049;DHT22;6085;49.452;8.502;2022-07-05T23:14:11;19.90;77.00
12049;DHT22;6085;49.452;8.502;2022-07-05T23:18:13;19.80;77.70
12049;DHT22;6085;49.452;8.502;2022-07-05T23:22:17;19.70;78.90
12049;DHT22;6085;49.452;8.502;2022-07-05T23:26:20;19.60;79.90
12049;DHT22;6085;49.452;8.502;2022-07-05T23:30:22;19.40;81.70
12049;DHT22;6085;49.452;8.502;2022-07-05T23:34:24;19.30;83.50
12049;DHT22;6085;49.452;8.502;2022-07-05T23:38:27;19.30;85.30
12049;DHT22;6085;49.452;8.502;2022-07-05T23:42:29;19.20;86.80
12049;DHT22;6085;49.452;8.502;2022-07-05T23:46:31;19.20;89.30
12049;DHT22;6085;49.452;8.502;2022-07-05T23:50:33;19.10;90.60
12049;DHT22;6085;49.452;8.502;2022-07-05T23:54:36;19.10;91.70
12049;DHT22;6085;49.452;8.502;2022-07-05T23:58:38;19.10;92.90
